sensor_id;sensor_type;location;lat;lon;timestamp;pressure;altitude;pressure_sealevel;temperature;humidity
41830;BME280;38614;43.472;23.936;2022-12-07T00:00:01;100446.81;;;4.75;100.00
41830;BME280;38614;43.472;23.936;2022-12-07T00:02:53;100447.47;;;4.81;100.00
41830;BME280;38614;43.472;23.936;2022-12-07T00:05:41;100444.19;;;4.70;100.00
41830;BME280;38614;43.472;23.936;2022-12-07T00:08:30;100441.94;;;4.72;100.00
41830;BME280;38614;43.472;23.936;2022-12-07T00:11:20;100456.97;;;4.75;100.00
41830;BME280;38614;43.472;23.936;2022-12-07T00:14:12;100438.47;;;4.80;100.00
41830;BME280;38614;43.472;23.936;2022-12-07T00:17:00;100445.59;;;4.90;100.00
41830;BME280;38614;43.472;23.936;2022-12-07T00:19:48;100441.88;;;4.86;100.00
41830;BME280;38614;43.472;23.936;2022-12-07T00:22:36;100435.91;;;4.84;100.00
41830;BME280;38614;43.472;23.936;2022-12-07T00:25:23;100405.38;;;4.68;100.00
41830;BME280;38614;43.472;23.936;2022-12-07T00:28:11;100438.66;;;4.84;100.00
41830;BME280;38614;43.472;23.936;2022-12-07T00:31:19;100435.34;;;4.73;100.00
41830;BME280;38614;43.472;23.936;2022-12-07T00:34:12;100432.53;;;4.87;100.00
41830;BME280;38614;43.472;23.936;2022-12-07T00:37:00;100438.66;;;4.84;100.00
41830;BME280;38614;43.472;23.936;2022-12-07T00:39:47;100418.59;;;4.66;100.00
41830;BME280;38614;43.472;23.936;2022-12-07T00:42:35;100421.56;;;4.56;100.00
41830;BME280;38614;43.472;23.936;2022-12-07T00:45:23;100415.16;;;4.61;100.00
41830;BME280;38614;43.472;23.936;2022-12-07T00:48:10;100420.19;;;4.67;100.00
41830;BME280;38614;43.472;23.936;2022-12-07T00:50:58;100405.28;;;4.51;100.00
41830;BME280;38614;43.472;23.936;2022-12-07T00:53:46;100419.13;;;4.54;100.00
41830;BME280;38614;43.472;23.936;2022-12-07T00:56:34;100428.84;;;4.61;100.00
41830;BME280;38614;43.472;23.936;2022-12-07T00:59:22;100416.34;;;4.68;100.00
41830;BME280;38614;43.472;23.936;2022-12-07T01:02:09;100410.38;;;4.44;100.00
41830;BME280;38614;43.472;23.936;2022-12-07T01:04:57;100437.00;;;4.52;100.00
41830;BME280;38614;43.472;23.936;2022-12-07T01:07:45;100428.84;;;4.61;100.00
41830;BME280;38614;43.472;23.936;2022-12-07T01:10:34;100431.91;;;4.59;100.00
41830;BME280;38614;43.472;23.936;2022-12-07T01:13:21;100431.09;;;4.58;100.00
41830;BME280;38614;43.472;23.936;2022-12-07T01:16:12;100414.53;;;4.41;100.00
41830;BME280;38614;43.472;23.936;2022-12-07T01:19:01;100422.72;;;4.64;100.00
41830;BME280;38614;43.472;23.936;2022-12-07T01:21:52;100427.13;;;4.73;100.00
41830;BME280;38614;43.472;23.936;2022-12-07T01:24:39;100422.03;;;4.80;100.00
41830;BME280;38614;43.472;23.936;2022-12-07T01:27:27;100411.97;;;4.67;100.00
41830;BME280;38614;43.472;23.936;2022-12-07T01:30:15;100411.97;;;4.67;100.00
41830;BME280;38614;43.472;23.936;2022-12-07T01:33:03;100391.97;;;4.58;100.00
41830;BME280;38614;43.472;23.936;2022-12-07T01:35:50;100426.22;;;4.78;100.00
41830;BME280;38614;43.472;23.936;2022-12-07T01:38:38;100412.03;;;4.76;100.00
41830;BME280;38614;43.472;23.936;2022-12-07T01:41:30;100355.84;;;4.25;100.00
41830;BME280;38614;43.472;23.936;2022-12-07T01:44:22;100328.31;;;4.21;100.00
41830;BME280;38614;43.472;23.936;2022-12-07T01:47:13;100382.19;;;4.66;100.00
41830;BME280;38614;43.472;23.936;2022-12-07T01:50:01;100420.31;;;4.84;100.00
41830;BME280;38614;43.472;23.936;2022-12-07T01:52:50;100413.06;;;4.89;100.00
41830;BME280;38614;43.472;23.936;2022-12-07T01:55:42;100399.63;;;4.78;100.00
41830;BME280;38614;43.472;23.936;2022-12-07T01:58:31;100380.97;;;4.80;100.00
41830;BME280;38614;43.472;23.936;2022-12-07T02:01:19;100381.22;;;4.70;100.00
41830;BME280;38614;43.472;23.936;2022-12-07T02:04:07;100300.28;;;4.16;100.00
41830;BME280;38614;43.472;23.936;2022-12-07T02:06:57;100381.88;;;4.67;100.00
41830;BME280;38614;43.472;23.936;2022-12-07T02:10:14;100372.25;;;4.78;100.00
41830;BME280;38614;43.472;23.936;2022-12-07T02:13:06;100354.78;;;4.57;100.00
41830;BME280;38614;43.472;23.936;2022-12-07T02:19:09;100379.19;;;4.76;100.00
41830;BME280;38614;43.472;23.936;2022-12-07T02:22:25;100364.31;;;4.68;100.00
41830;BME280;38614;43.472;23.936;2022-12-07T02:25:49;100377.25;;;4.76;100.00
41830;BME280;38614;43.472;23.936;2022-12-07T02:29:10;100381.91;;;4.76;100.00
41830;BME280;38614;43.472;23.936;2022-12-07T02:32:13;100376.44;;;4.76;100.00
41830;BME280;38614;43.472;23.936;2022-12-07T02:38:27;100380.75;;;4.68;100.00
41830;BME280;38614;43.472;23.936;2022-12-07T02:41:33;100382.88;;;4.80;100.00
41830;BME280;38614;43.472;23.936;2022-12-07T02:44:25;100384.69;;;4.84;100.00
41830;BME280;38614;43.472;23.936;2022-12-07T02:47:16;100379.72;;;4.86;100.00
41830;BME280;38614;43.472;23.936;2022-12-07T02:50:06;100369.25;;;4.89;100.00
41830;BME280;38614;43.472;23.936;2022-12-07T02:52:54;100328.59;;;4.73;100.00
41830;BME280;38614;43.472;23.936;2022-12-07T02:55:42;100357.94;;;4.81;100.00
41830;BME280;38614;43.472;23.936;2022-12-07T03:08:12;100367.06;;;4.68;100.00
41830;BME280;38614;43.472;23.936;2022-12-07T03:11:14;100353.50;;;4.63;100.00
41830;BME280;38614;43.472;23.936;2022-12-07T03:14:16;100332.63;;;4.45;100.00
41830;BME280;38614;43.472;23.936;2022-12-07T03:17:14;100354.31;;;4.64;100.00
41830;BME280;38614;43.472;23.936;2022-12-07T03:20:06;100338.47;;;4.52;100.00
41830;BME280;38614;43.472;23.936;2022-12-07T03:22:55;100348.16;;;4.58;100.00
41830;BME280;38614;43.472;23.936;2022-12-07T03:25:52;100339.81;;;4.63;100.00
41830;BME280;38614;43.472;23.936;2022-12-07T03:28:52;100345.47;;;4.67;100.00
41830;BME280;38614;43.472;23.936;2022-12-07T03:31:46;100330.47;;;4.64;100.00
41830;BME280;38614;43.472;23.936;2022-12-07T03:34:50;100331.75;;;4.58;100.00
41830;BME280;38614;43.472;23.936;2022-12-07T03:37:51;100332.28;;;4.69;100.00
41830;BME280;38614;43.472;23.936;2022-12-07T03:40:49;100340.97;;;4.71;100.00
41830;BME280;38614;43.472;23.936;2022-12-07T03:43:39;100308.53;;;4.47;100.00
41830;BME280;38614;43.472;23.936;2022-12-07T03:52:56;100354.63;;;4.62;100.00
41830;BME280;38614;43.472;23.936;2022-12-07T03:55:47;100348.34;;;4.62;100.00
41830;BME280;38614;43.472;23.936;2022-12-07T03:58:37;100355.75;;;4.61;100.00
41830;BME280;38614;43.472;23.936;2022-12-07T04:01:29;100356.16;;;4.77;100.00
41830;BME280;38614;43.472;23.936;2022-12-07T04:04:17;100351.94;;;4.71;100.00
41830;BME280;38614;43.472;23.936;2022-12-07T04:07:05;100341.25;;;4.61;100.00
41830;BME280;38614;43.472;23.936;2022-12-07T04:09:53;100334.97;;;4.60;100.00
41830;BME280;38614;43.472;23.936;2022-12-07T04:12:42;100341.97;;;4.75;100.00
41830;BME280;38614;43.472;23.936;2022-12-07T04:15:30;100336.94;;;4.68;100.00
41830;BME280;38614;43.472;23.936;2022-12-07T04:18:18;100327.50;;;4.83;100.00
41830;BME280;38614;43.472;23.936;2022-12-07T04:21:05;100311.81;;;4.66;100.00
41830;BME280;38614;43.472;23.936;2022-12-07T04:23:53;100306.66;;;4.65;100.00
41830;BME280;38614;43.472;23.936;2022-12-07T04:26:42;100294.84;;;4.55;100.00
41830;BME280;38614;43.472;23.936;2022-12-07T04:29:30;100297.91;;;4.54;100.00
41830;BME280;38614;43.472;23.936;2022-12-07T04:32:17;100259.81;;;4.35;100.00
41830;BME280;38614;43.472;23.936;2022-12-07T04:35:06;100287.59;;;4.51;100.00
41830;BME280;38614;43.472;23.936;2022-12-07T04:37:54;100282.09;;;4.42;100.00
41830;BME280;38614;43.472;23.936;2022-12-07T04:40:42;100300.63;;;4.54;100.00
41830;BME280;38614;43.472;23.936;2022-12-07T04:43:38;100303.03;;;4.47;100.00
41830;BME280;38614;43.472;23.936;2022-12-07T04:46:30;100323.94;;;4.43;100.00
41830;BME280;38614;43.472;23.936;2022-12-07T04:49:25;100314.09;;;4.42;100.00
41830;BME280;38614;43.472;23.936;2022-12-07T04:52:18;100286.22;;;4.31;100.00
41830;BME280;38614;43.472;23.936;2022-12-07T04:55:07;100261.63;;;4.09;100.00
41830;BME280;38614;43.472;23.936;2022-12-07T04:57:55;100303.44;;;4.32;100.00
41830;BME280;38614;43.472;23.936;2022-12-07T05:00:42;100291.19;;;4.29;100.00
41830;BME280;38614;43.472;23.936;2022-12-07T05:03:32;100303.22;;;4.19;100.00
41830;BME280;38614;43.472;23.936;2022-12-07T05:06:22;100302.00;;;4.34;100.00
41830;BME280;38614;43.472;23.936;2022-12-07T05:09:12;100316.31;;;4.31;100.00
41830;BME280;38614;43.472;23.936;2022-12-07T05:11:59;100309.41;;;4.34;100.00
41830;BME280;38614;43.472;23.936;2022-12-07T05:14:48;100278.41;;;4.16;100.00
41830;BME280;38614;43.472;23.936;2022-12-07T05:17:38;100312.75;;;4.31;100.00
41830;BME280;38614;43.472;23.936;2022-12-07T05:20:32;100274.47;;;4.08;100.00
41830;BME280;38614;43.472;23.936;2022-12-07T05:23:26;100321.34;;;4.38;100.00
41830;BME280;38614;43.472;23.936;2022-12-07T05:26:14;100294.53;;;4.26;100.00
41830;BME280;38614;43.472;23.936;2022-12-07T05:29:02;100272.59;;;4.17;100.00
41830;BME280;38614;43.472;23.936;2022-12-07T05:31:50;100267.13;;;4.17;100.00
41830;BME280;38614;43.472;23.936;2022-12-07T05:34:40;100286.00;;;4.27;100.00
41830;BME280;38614;43.472;23.936;2022-12-07T05:37:28;100286.81;;;4.28;100.00
41830;BME280;38614;43.472;23.936;2022-12-07T05:40:16;100288.75;;;4.27;100.00
41830;BME280;38614;43.472;23.936;2022-12-07T05:43:04;100279.44;;;4.28;100.00
41830;BME280;38614;43.472;23.936;2022-12-07T05:45:51;100299.25;;;4.34;100.00
41830;BME280;38614;43.472;23.936;2022-12-07T05:48:39;100275.66;;;4.16;100.00
41830;BME280;38614;43.472;23.936;2022-12-07T05:51:27;100309.94;;;4.44;100.00
41830;BME280;38614;43.472;23.936;2022-12-07T05:54:15;100308.31;;;4.43;100.00
41830;BME280;38614;43.472;23.936;2022-12-07T05:57:03;100299.75;;;4.36;100.00
41830;BME280;38614;43.472;23.936;2022-12-07T05:59:50;100315.09;;;4.46;100.00
41830;BME280;38614;43.472;23.936;2022-12-07T06:02:38;100286.22;;;4.31;100.00
41830;BME280;38614;43.472;23.936;2022-12-07T06:05:26;100306.72;;;4.42;100.00
41830;BME280;38614;43.472;23.936;2022-12-07T06:08:13;100281.19;;;4.24;100.00
41830;BME280;38614;43.472;23.936;2022-12-07T06:11:02;100277.69;;;4.33;100.00
41830;BME280;38614;43.472;23.936;2022-12-07T06:14:19;100255.50;;;4.03;100.00
41830;BME280;38614;43.472;23.936;2022-12-07T06:17:08;100305.59;;;4.43;100.00
41830;BME280;38614;43.472;23.936;2022-12-07T06:19:56;100307.88;;;4.50;100.00
41830;BME280;38614;43.472;23.936;2022-12-07T06:22:43;100272.09;;;4.38;100.00
41830;BME280;38614;43.472;23.936;2022-12-07T06:25:31;100286.69;;;4.33;100.00
41830;BME280;38614;43.472;23.936;2022-12-07T06:28:18;100294.59;;;4.35;100.00
41830;BME280;38614;43.472;23.936;2022-12-07T06:31:07;100307.19;;;4.44;100.00
41830;BME280;38614;43.472;23.936;2022-12-07T06:34:02;100300.31;;;4.55;100.00
41830;BME280;38614;43.472;23.936;2022-12-07T06:36:50;100301.41;;;4.46;100.00
41830;BME280;38614;43.472;23.936;2022-12-07T06:39:40;100305.16;;;4.50;100.00
41830;BME280;38614;43.472;23.936;2022-12-07T06:42:28;100297.78;;;4.59;100.00
41830;BME280;38614;43.472;23.936;2022-12-07T06:45:16;100293.59;;;4.62;100.00
41830;BME280;38614;43.472;23.936;2022-12-07T06:48:03;100293.31;;;4.72;100.00
41830;BME280;38614;43.472;23.936;2022-12-07T06:50:51;100303.13;;;4.73;100.00
41830;BME280;38614;43.472;23.936;2022-12-07T06:53:44;100291.91;;;4.83;100.00
41830;BME280;38614;43.472;23.936;2022-12-07T06:56:32;100264.50;;;4.74;100.00
41830;BME280;38614;43.472;23.936;2022-12-07T06:59:19;100295.97;;;4.85;100.00
41830;BME280;38614;43.472;23.936;2022-12-07T07:02:08;100272.56;;;4.79;100.00
41830;BME280;38614;43.472;23.936;2022-12-07T07:04:59;100309.41;;;5.13;100.00
41830;BME280;38614;43.472;23.936;2022-12-07T07:07:46;100295.81;;;4.99;100.00
41830;BME280;38614;43.472;23.936;2022-12-07T07:10:55;100297.63;;;5.04;100.00
41830;BME280;38614;43.472;23.936;2022-12-07T07:13:42;100295.19;;;5.11;100.00
41830;BME280;38614;43.472;23.936;2022-12-07T07:16:30;100257.00;;;4.97;100.00
41830;BME280;38614;43.472;23.936;2022-12-07T07:19:18;100278.63;;;5.16;100.00
41830;BME280;38614;43.472;23.936;2022-12-07T07:22:06;100294.63;;;5.31;100.00
41830;BME280;38614;43.472;23.936;2022-12-07T07:24:54;100298.47;;;5.30;100.00
41830;BME280;38614;43.472;23.936;2022-12-07T07:27:42;100296.41;;;5.44;100.00
41830;BME280;38614;43.472;23.936;2022-12-07T07:30:29;100304.31;;;5.55;100.00
41830;BME280;38614;43.472;23.936;2022-12-07T07:33:17;100292.06;;;5.52;100.00
41830;BME280;38614;43.472;23.936;2022-12-07T07:36:05;100292.53;;;5.46;100.00
41830;BME280;38614;43.472;23.936;2022-12-07T07:38:53;100294.78;;;5.52;100.00
41830;BME280;38614;43.472;23.936;2022-12-07T07:41:41;100296.09;;;5.55;100.00
41830;BME280;38614;43.472;23.936;2022-12-07T07:44:33;100287.03;;;5.46;100.00
41830;BME280;38614;43.472;23.936;2022-12-07T07:47:21;100287.84;;;5.55;100.00
41830;BME280;38614;43.472;23.936;2022-12-07T07:50:09;100286.06;;;5.67;100.00
41830;BME280;38614;43.472;23.936;2022-12-07T07:52:58;100295.44;;;5.75;100.00
41830;BME280;38614;43.472;23.936;2022-12-07T07:55:53;100288.50;;;5.78;100.00
41830;BME280;38614;43.472;23.936;2022-12-07T07:58:41;100280.28;;;5.78;100.00
41830;BME280;38614;43.472;23.936;2022-12-07T08:01:28;100292.88;;;5.87;100.00
41830;BME280;38614;43.472;23.936;2022-12-07T08:04:16;100286.56;;;5.87;100.00
41830;BME280;38614;43.472;23.936;2022-12-07T08:07:04;100303.03;;;5.78;100.00
41830;BME280;38614;43.472;23.936;2022-12-07T08:09:52;100306.41;;;5.84;100.00
41830;BME280;38614;43.472;23.936;2022-12-07T08:12:41;100282.53;;;5.84;100.00
41830;BME280;38614;43.472;23.936;2022-12-07T08:15:47;100292.69;;;6.10;100.00
41830;BME280;38614;43.472;23.936;2022-12-07T08:18:36;100289.97;;;5.92;100.00
41830;BME280;38614;43.472;23.936;2022-12-07T08:21:25;100296.25;;;6.10;100.00
41830;BME280;38614;43.472;23.936;2022-12-07T08:24:12;100287.53;;;5.82;100.00
41830;BME280;38614;43.472;23.936;2022-12-07T08:27:01;100299.47;;;5.86;100.00
41830;BME280;38614;43.472;23.936;2022-12-07T08:29:48;100298.53;;;5.99;100.00
41830;BME280;38614;43.472;23.936;2022-12-07T08:32:36;100293.50;;;6.02;100.00
41830;BME280;38614;43.472;23.936;2022-12-07T08:35:24;100295.91;;;6.12;100.00
41830;BME280;38614;43.472;23.936;2022-12-07T08:38:12;100268.81;;;6.02;100.00
41830;BME280;38614;43.472;23.936;2022-12-07T08:41:00;100251.75;;;5.70;100.00
41830;BME280;38614;43.472;23.936;2022-12-07T08:43:48;100302.06;;;6.09;100.00
41830;BME280;38614;43.472;23.936;2022-12-07T08:46:41;100293.53;;;5.93;100.00
41830;BME280;38614;43.472;23.936;2022-12-07T08:49:43;100282.22;;;5.94;100.00
41830;BME280;38614;43.472;23.936;2022-12-07T08:52:34;100217.25;;;5.43;100.00
41830;BME280;38614;43.472;23.936;2022-12-07T08:55:23;100293.00;;;5.82;100.00
41830;BME280;38614;43.472;23.936;2022-12-07T08:58:11;100275.44;;;5.92;100.00
41830;BME280;38614;43.472;23.936;2022-12-07T09:00:59;100262.22;;;5.94;100.00
41830;BME280;38614;43.472;23.936;2022-12-07T09:03:50;100246.25;;;5.87;100.00
41830;BME280;38614;43.472;23.936;2022-12-07T09:06:38;100273.66;;;6.05;100.00
41830;BME280;38614;43.472;23.936;2022-12-07T09:09:26;100270.44;;;6.03;100.00
41830;BME280;38614;43.472;23.936;2022-12-07T09:12:14;100245.13;;;5.97;100.00
41830;BME280;38614;43.472;23.936;2022-12-07T09:15:01;100263.97;;;6.16;100.00
41830;BME280;38614;43.472;23.936;2022-12-07T09:18:07;100242.03;;;6.07;100.00
41830;BME280;38614;43.472;23.936;2022-12-07T09:20:56;100258.94;;;6.26;100.00
41830;BME280;38614;43.472;23.936;2022-12-07T09:23:44;100251.97;;;6.29;100.00
41830;BME280;38614;43.472;23.936;2022-12-07T09:26:34;100246.97;;;6.22;100.00
41830;BME280;38614;43.472;23.936;2022-12-07T09:29:22;100226.81;;;6.27;100.00
41830;BME280;38614;43.472;23.936;2022-12-07T09:32:10;100230.84;;;6.21;100.00
41830;BME280;38614;43.472;23.936;2022-12-07T09:34:58;100229.34;;;6.32;100.00
41830;BME280;38614;43.472;23.936;2022-12-07T09:37:46;100220.31;;;6.32;100.00
41830;BME280;38614;43.472;23.936;2022-12-07T09:40:33;100206.16;;;6.21;100.00
41830;BME280;38614;43.472;23.936;2022-12-07T09:43:25;100221.97;;;6.24;100.00
41830;BME280;38614;43.472;23.936;2022-12-07T09:46:15;100196.50;;;6.15;100.00
41830;BME280;38614;43.472;23.936;2022-12-07T09:49:20;100211.25;;;6.40;100.00
41830;BME280;38614;43.472;23.936;2022-12-07T09:54:55;100199.03;;;6.88;100.00
41830;BME280;38614;43.472;23.936;2022-12-07T09:57:43;100200.69;;;7.09;100.00
41830;BME280;38614;43.472;23.936;2022-12-07T10:00:31;100161.00;;;6.98;100.00
41830;BME280;38614;43.472;23.936;2022-12-07T10:03:19;100153.34;;;6.83;100.00
41830;BME280;38614;43.472;23.936;2022-12-07T10:06:07;100177.00;;;6.96;100.00
41830;BME280;38614;43.472;23.936;2022-12-07T10:08:55;100161.06;;;7.10;100.00
41830;BME280;38614;43.472;23.936;2022-12-07T10:12:13;100165.69;;;7.19;100.00
41830;BME280;38614;43.472;23.936;2022-12-07T10:15:03;100148.91;;;7.32;100.00
41830;BME280;38614;43.472;23.936;2022-12-07T10:17:54;100163.31;;;7.50;100.00
41830;BME280;38614;43.472;23.936;2022-12-07T10:20:42;100162.44;;;7.58;100.00
41830;BME280;38614;43.472;23.936;2022-12-07T10:23:30;100160.53;;;7.38;100.00
41830;BME280;38614;43.472;23.936;2022-12-07T10:26:28;100146.00;;;7.50;100.00
41830;BME280;38614;43.472;23.936;2022-12-07T10:29:38;100142.72;;;7.56;100.00
41830;BME280;38614;43.472;23.936;2022-12-07T10:32:33;100134.59;;;7.60;100.00
41830;BME280;38614;43.472;23.936;2022-12-07T10:35:29;100138.91;;;7.49;100.00
41830;BME280;38614;43.472;23.936;2022-12-07T10:38:17;100138.81;;;7.57;100.00
41830;BME280;38614;43.472;23.936;2022-12-07T10:41:08;100119.47;;;7.33;100.00
41830;BME280;38614;43.472;23.936;2022-12-07T10:43:57;100131.16;;;7.30;100.00
41830;BME280;38614;43.472;23.936;2022-12-07T11:02:25;100088.09;;;7.34;100.00
41830;BME280;38614;43.472;23.936;2022-12-07T11:05:27;100097.13;;;7.67;100.00
41830;BME280;38614;43.472;23.936;2022-12-07T11:09:14;100083.97;;;7.73;100.00
41830;BME280;38614;43.472;23.936;2022-12-07T11:15:28;100074.81;;;8.18;100.00
41830;BME280;38614;43.472;23.936;2022-12-07T11:18:51;100043.16;;;7.87;100.00
41830;BME280;38614;43.472;23.936;2022-12-07T11:22:01;100062.31;;;7.96;100.00
41830;BME280;38614;43.472;23.936;2022-12-07T11:37:11;100074.38;;;7.91;100.00
41830;BME280;38614;43.472;23.936;2022-12-07T11:40:04;100070.91;;;8.07;100.00
41830;BME280;38614;43.472;23.936;2022-12-07T11:42:58;100059.22;;;7.85;100.00
41830;BME280;38614;43.472;23.936;2022-12-07T11:52:02;100059.34;;;7.89;100.00
41830;BME280;38614;43.472;23.936;2022-12-07T11:54:52;100058.44;;;7.85;100.00
41830;BME280;38614;43.472;23.936;2022-12-07T11:57:44;100042.38;;;7.99;100.00
41830;BME280;38614;43.472;23.936;2022-12-07T12:00:33;100046.50;;;8.17;100.00
41830;BME280;38614;43.472;23.936;2022-12-07T12:03:31;100033.78;;;8.00;100.00
41830;BME280;38614;43.472;23.936;2022-12-07T12:06:21;100024.50;;;7.93;100.00
41830;BME280;38614;43.472;23.936;2022-12-07T12:09:41;100035.81;;;8.16;100.00
41830;BME280;38614;43.472;23.936;2022-12-07T12:13:08;100032.28;;;8.03;100.00
41830;BME280;38614;43.472;23.936;2022-12-07T12:16:54;100021.72;;;8.05;100.00
41830;BME280;38614;43.472;23.936;2022-12-07T12:20:27;100026.31;;;8.13;100.00
41830;BME280;38614;43.472;23.936;2022-12-07T12:26:20;100024.50;;;8.05;100.00
41830;BME280;38614;43.472;23.936;2022-12-07T12:32:27;99989.41;;;7.78;100.00
41830;BME280;38614;43.472;23.936;2022-12-07T12:35:34;100010.03;;;7.96;100.00
41830;BME280;38614;43.472;23.936;2022-12-07T12:47:42;100002.47;;;7.68;100.00
41830;BME280;38614;43.472;23.936;2022-12-07T12:53:21;100022.66;;;7.85;100.00
41830;BME280;38614;43.472;23.936;2022-12-07T12:56:25;100014.50;;;7.88;100.00
41830;BME280;38614;43.472;23.936;2022-12-07T13:02:27;100022.66;;;7.85;100.00
41830;BME280;38614;43.472;23.936;2022-12-07T13:05:27;100024.94;;;7.95;100.00
41830;BME280;38614;43.472;23.936;2022-12-07T13:08:21;100020.69;;;7.97;100.00
41830;BME280;38614;43.472;23.936;2022-12-07T13:11:41;100022.09;;;7.91;100.00
41830;BME280;38614;43.472;23.936;2022-12-07T13:20:47;100026.31;;;7.89;100.00
41830;BME280;38614;43.472;23.936;2022-12-07T13:26:41;100018.66;;;7.82;100.00
41830;BME280;38614;43.472;23.936;2022-12-07T13:29:36;100023.69;;;7.92;100.00
41830;BME280;38614;43.472;23.936;2022-12-07T13:32:27;100021.97;;;7.88;100.00
41830;BME280;38614;43.472;23.936;2022-12-07T13:35:34;100028.50;;;7.83;100.00
41830;BME280;38614;43.472;23.936;2022-12-07T13:38:34;100028.72;;;7.78;100.00
41830;BME280;38614;43.472;23.936;2022-12-07T13:41:26;100030.56;;;7.86;100.00
41830;BME280;38614;43.472;23.936;2022-12-07T13:44:16;100012.47;;;7.73;100.00
41830;BME280;38614;43.472;23.936;2022-12-07T13:47:16;100021.97;;;7.88;100.00
41830;BME280;38614;43.472;23.936;2022-12-07T13:53:13;100004.88;;;7.70;100.00
41830;BME280;38614;43.472;23.936;2022-12-07T13:56:01;100023.13;;;7.75;100.00
41830;BME280;38614;43.472;23.936;2022-12-07T13:58:50;100009.56;;;7.57;100.00
41830;BME280;38614;43.472;23.936;2022-12-07T14:01:55;100017.00;;;7.45;100.00
41830;BME280;38614;43.472;23.936;2022-12-07T14:04:43;100020.78;;;7.40;100.00
41830;BME280;38614;43.472;23.936;2022-12-07T14:07:33;100023.28;;;7.33;100.00
41830;BME280;38614;43.472;23.936;2022-12-07T14:10:35;100029.91;;;7.32;100.00
41830;BME280;38614;43.472;23.936;2022-12-07T14:16:29;100021.31;;;7.21;100.00
41830;BME280;38614;43.472;23.936;2022-12-07T14:22:36;100003.28;;;6.99;100.00
41830;BME280;38614;43.472;23.936;2022-12-07T14:25:26;100005.69;;;7.01;100.00
41830;BME280;38614;43.472;23.936;2022-12-07T14:28:34;100034.66;;;7.10;100.00
41830;BME280;38614;43.472;23.936;2022-12-07T14:31:24;100038.09;;;7.07;100.00
41830;BME280;38614;43.472;23.936;2022-12-07T14:34:19;100036.56;;;6.98;100.00
41830;BME280;38614;43.472;23.936;2022-12-07T14:37:09;100038.56;;;6.89;100.00
41830;BME280;38614;43.472;23.936;2022-12-07T14:39:57;100045.66;;;7.10;100.00
41830;BME280;38614;43.472;23.936;2022-12-07T14:42:47;100039.09;;;7.03;100.00
41830;BME280;38614;43.472;23.936;2022-12-07T14:45:35;100038.03;;;6.95;100.00
41830;BME280;38614;43.472;23.936;2022-12-07T14:48:23;100055.19;;;6.92;100.00
41830;BME280;38614;43.472;23.936;2022-12-07T14:51:31;100048.94;;;6.71;100.00
41830;BME280;38614;43.472;23.936;2022-12-07T14:54:41;99974.53;;;6.22;100.00
41830;BME280;38614;43.472;23.936;2022-12-07T14:57:31;100051.53;;;6.67;100.00
41830;BME280;38614;43.472;23.936;2022-12-07T15:00:20;100048.25;;;6.74;100.00
41830;BME280;38614;43.472;23.936;2022-12-07T15:03:10;100057.16;;;6.71;100.00
41830;BME280;38614;43.472;23.936;2022-12-07T15:06:01;100055.75;;;6.65;100.00
41830;BME280;38614;43.472;23.936;2022-12-07T15:08:48;100063.53;;;6.63;100.00
41830;BME280;38614;43.472;23.936;2022-12-07T15:11:36;100059.75;;;6.46;100.00
41830;BME280;38614;43.472;23.936;2022-12-07T15:14:30;100060.91;;;6.45;100.00
41830;BME280;38614;43.472;23.936;2022-12-07T15:17:18;100067.59;;;6.36;100.00
41830;BME280;38614;43.472;23.936;2022-12-07T15:20:17;100036.47;;;6.02;100.00
41830;BME280;38614;43.472;23.936;2022-12-07T15:23:05;100066.69;;;6.23;100.00
41830;BME280;38614;43.472;23.936;2022-12-07T15:25:56;100069.16;;;6.16;100.00
41830;BME280;38614;43.472;23.936;2022-12-07T15:28:44;100077.53;;;6.19;100.00
41830;BME280;38614;43.472;23.936;2022-12-07T15:31:32;100071.63;;;6.09;100.00
41830;BME280;38614;43.472;23.936;2022-12-07T15:34:39;100067.44;;;6.03;100.00
41830;BME280;38614;43.472;23.936;2022-12-07T15:37:28;100073.72;;;6.03;100.00
41830;BME280;38614;43.472;23.936;2022-12-07T15:40:19;100088.44;;;5.98;100.00
41830;BME280;38614;43.472;23.936;2022-12-07T15:43:09;100088.44;;;5.98;100.00
41830;BME280;38614;43.472;23.936;2022-12-07T15:46:17;100091.81;;;5.95;100.00
41830;BME280;38614;43.472;23.936;2022-12-07T15:49:12;100081.41;;;5.71;100.00
41830;BME280;38614;43.472;23.936;2022-12-07T15:52:02;100098.50;;;5.77;100.00
41830;BME280;38614;43.472;23.936;2022-12-07T15:55:08;100097.97;;;5.84;100.00
41830;BME280;38614;43.472;23.936;2022-12-07T15:58:25;100105.59;;;5.78;100.00
41830;BME280;38614;43.472;23.936;2022-12-07T16:01:15;100100.13;;;5.78;100.00
41830;BME280;38614;43.472;23.936;2022-12-07T16:04:04;100105.78;;;5.64;100.00
41830;BME280;38614;43.472;23.936;2022-12-07T16:06:53;100086.56;;;5.73;100.00
41830;BME280;38614;43.472;23.936;2022-12-07T16:09:43;100109.34;;;5.65;100.00
41830;BME280;38614;43.472;23.936;2022-12-07T16:12:30;100110.31;;;5.69;100.00
41830;BME280;38614;43.472;23.936;2022-12-07T16:15:18;100068.25;;;5.48;100.00
41830;BME280;38614;43.472;23.936;2022-12-07T16:18:10;100102.34;;;5.76;100.00
41830;BME280;38614;43.472;23.936;2022-12-07T16:20:58;100103.03;;;5.64;100.00
41830;BME280;38614;43.472;23.936;2022-12-07T16:23:46;100090.19;;;5.48;100.00
41830;BME280;38614;43.472;23.936;2022-12-07T16:26:34;100113.41;;;5.50;100.00
41830;BME280;38614;43.472;23.936;2022-12-07T16:29:22;100113.88;;;5.61;100.00
41830;BME280;38614;43.472;23.936;2022-12-07T16:32:11;100095.66;;;5.48;100.00